Time;durP1;ratioP1;P1;durP2;ratioP2;P2;SDS_P1;SDS_P2;PMS_P1;PMS_P2;Temp;Humidity;BMP_temperature;BMP_pressure;BME280_temperature;BME280_humidity;BME280_pressure;Samples;Min_cycle;Max_cycle;Signal;HPM_P1;HPM_P2
2021/07/28 00:02:11;;;;;;;;;;;18.60;74.20;;;;;;5012594;28;21733;-77
2021/07/28 00:04:38;;;;;;;;;;;18.50;74.00;;;;;;5004337;28;19976;-77
2021/07/28 00:07:04;;;;;;;;;;;18.50;73.80;;;;;;5011961;28;20016;-77
2021/07/28 00:09:31;;;;;;;;;;;18.50;73.70;;;;;;5011178;28;20008;-77
2021/07/28 00:11:57;;;;;;;;;;;18.50;73.60;;;;;;5011718;28;19929;-77
2021/07/28 00:14:23;;;;;;;;;;;18.40;73.50;;;;;;5011519;28;20063;-77
2021/07/28 00:16:49;;;;;;;;;;;18.40;73.70;;;;;;5012831;28;19969;-77
2021/07/28 00:19:22;;;;;;;;;;;18.30;73.60;;;;;;5015117;28;20048;-77
2021/07/28 00:24:34;;;;;;;;;;;18.30;73.50;;;;;;5014988;28;20301;-77
2021/07/28 00:27:00;;;;;;;;;;;18.30;73.60;;;;;;5054894;28;20000;-77
2021/07/28 00:29:26;;;;;;;;;;;18.20;73.60;;;;;;5054810;28;20011;-77
2021/07/28 00:31:53;;;;;;;;;;;18.20;73.60;;;;;;5054401;28;19932;-77
2021/07/28 00:34:19;;;;;;;;;;;18.20;73.60;;;;;;5052956;28;19933;-76
2021/07/28 00:36:45;;;;;;;;;;;18.10;73.60;;;;;;5054467;28;20016;-77
2021/07/28 00:39:11;;;;;;;;;;;18.10;73.70;;;;;;5054512;28;20066;-76
2021/07/28 00:41:44;;;;;;;;;;;18.10;73.70;;;;;;5054260;28;19967;-77
2021/07/28 00:44:11;;;;;;;;;;;18.10;73.70;;;;;;5054347;28;20018;-77
2021/07/28 00:46:37;;;;;;;;;;;18.00;73.70;;;;;;5054397;28;19925;-77
2021/07/28 00:49:03;;;;;;;;;;;18.00;73.70;;;;;;5054455;28;20063;-77
2021/07/28 00:51:30;;;;;;;;;;;18.00;73.80;;;;;;5053857;28;20026;-76
2021/07/28 00:53:56;;;;;;;;;;;18.00;73.70;;;;;;5054440;28;19924;-77
2021/07/28 00:56:22;;;;;;;;;;;18.00;73.70;;;;;;5054540;28;20389;-76
2021/07/28 00:58:49;;;;;;;;;;;17.90;73.60;;;;;;5054298;28;20012;-76
2021/07/28 01:01:15;;;;;;;;;;;17.90;73.60;;;;;;5053286;28;19967;-77
2021/07/28 01:03:42;;;;;;;;;;;17.90;73.60;;;;;;5054297;28;19925;-77
2021/07/28 01:06:10;;;;;;;;;;;17.90;73.80;;;;;;5053804;28;19931;-76
2021/07/28 01:08:37;;;;;;;;;;;17.90;73.80;;;;;;5053129;28;20047;-77
2021/07/28 01:11:06;;;;;;;;;;;17.80;73.80;;;;;;5054042;28;19939;-77
2021/07/28 01:13:37;;;;;;;;;;;17.90;73.80;;;;;;5053829;28;20008;-76
2021/07/28 01:16:13;;;;;;;;;;;17.80;73.80;;;;;;5053898;28;20311;-77
2021/07/28 01:18:40;;;;;;;;;;;17.80;73.90;;;;;;5053742;28;20285;-77
2021/07/28 01:21:08;;;;;;;;;;;17.80;74.00;;;;;;5054086;28;19983;-76
2021/07/28 01:23:34;;;;;;;;;;;17.70;74.00;;;;;;5053932;28;20071;-77
2021/07/28 01:26:01;;;;;;;;;;;17.70;74.10;;;;;;5053904;28;19947;-76
2021/07/28 01:28:29;;;;;;;;;;;17.70;74.20;;;;;;5053596;28;19987;-76
2021/07/28 01:31:08;;;;;;;;;;;17.70;74.20;;;;;;5053812;28;19929;-77
2021/07/28 01:33:35;;;;;;;;;;;17.70;74.30;;;;;;5053703;28;19929;-77
2021/07/28 01:36:03;;;;;;;;;;;17.70;74.30;;;;;;5053563;28;19936;-78
2021/07/28 01:38:30;;;;;;;;;;;17.60;74.40;;;;;;5053888;28;19935;-77
2021/07/28 01:40:58;;;;;;;;;;;17.60;74.50;;;;;;5053274;28;20020;-77
2021/07/28 01:43:26;;;;;;;;;;;17.60;74.60;;;;;;5053180;28;19929;-76
2021/07/28 01:45:53;;;;;;;;;;;17.50;74.70;;;;;;5053066;28;20032;-76
2021/07/28 01:48:19;;;;;;;;;;;17.50;74.80;;;;;;5053598;28;20391;-77
2021/07/28 01:50:45;;;;;;;;;;;17.50;74.90;;;;;;5053198;28;20023;-77
2021/07/28 01:53:12;;;;;;;;;;;17.50;75.00;;;;;;5052386;28;19929;-76
2021/07/28 01:55:38;;;;;;;;;;;17.40;75.00;;;;;;5053403;28;19971;-77
2021/07/28 01:58:05;;;;;;;;;;;17.40;75.20;;;;;;5053009;28;19932;-77
2021/07/28 02:00:31;;;;;;;;;;;17.40;75.20;;;;;;5053175;28;19925;-77
2021/07/28 02:03:02;;;;;;;;;;;17.40;75.20;;;;;;5053088;28;20007;-77
2021/07/28 02:05:32;;;;;;;;;;;17.40;75.20;;;;;;5053032;28;20007;-77
2021/07/28 02:08:02;;;;;;;;;;;17.40;75.20;;;;;;5052413;28;19978;-77
2021/07/28 02:10:29;;;;;;;;;;;17.40;75.30;;;;;;5052642;28;20297;-77
2021/07/28 02:12:56;;;;;;;;;;;17.40;75.30;;;;;;5052701;28;19925;-77
2021/07/28 02:15:23;;;;;;;;;;;17.40;75.30;;;;;;5052852;28;20055;-77
2021/07/28 02:17:50;;;;;;;;;;;17.30;75.40;;;;;;5034715;28;19976;-77
2021/07/28 02:20:17;;;;;;;;;;;17.30;75.50;;;;;;5052776;28;20422;-76
2021/07/28 02:22:43;;;;;;;;;;;17.30;75.60;;;;;;5052844;28;20019;-77
2021/07/28 02:25:10;;;;;;;;;;;17.30;75.70;;;;;;5052994;28;19968;-76
2021/07/28 02:27:36;;;;;;;;;;;17.20;75.70;;;;;;5052666;28;20012;-77
2021/07/28 02:30:03;;;;;;;;;;;17.20;75.90;;;;;;5052319;28;19933;-77
2021/07/28 02:32:29;;;;;;;;;;;17.20;75.90;;;;;;5052558;28;19924;-77
2021/07/28 02:34:55;;;;;;;;;;;17.20;75.90;;;;;;5052561;28;19929;-77
2021/07/28 02:37:21;;;;;;;;;;;17.20;76.00;;;;;;5052434;28;20015;-76
2021/07/28 02:39:47;;;;;;;;;;;17.10;76.00;;;;;;5052079;28;20003;-77
2021/07/28 02:42:13;;;;;;;;;;;17.10;76.10;;;;;;5052257;28;19931;-77
2021/07/28 02:44:39;;;;;;;;;;;17.10;76.10;;;;;;5052260;28;20011;-77
2021/07/28 02:47:05;;;;;;;;;;;17.10;76.20;;;;;;5052105;28;19925;-76
2021/07/28 02:49:32;;;;;;;;;;;17.10;76.30;;;;;;5038295;28;19924;-76
2021/07/28 02:51:58;;;;;;;;;;;17.10;76.10;;;;;;5052343;28;20070;-76
2021/07/28 02:54:24;;;;;;;;;;;17.10;76.10;;;;;;5052284;28;19925;-76
2021/07/28 02:56:50;;;;;;;;;;;17.10;76.10;;;;;;5051935;28;20392;-76
2021/07/28 02:59:16;;;;;;;;;;;17.10;76.20;;;;;;5051853;28;19936;-76
2021/07/28 03:01:42;;;;;;;;;;;17.10;76.20;;;;;;5052120;28;20051;-77
2021/07/28 03:04:09;;;;;;;;;;;17.10;76.20;;;;;;5051829;28;19924;-77
2021/07/28 03:06:35;;;;;;;;;;;17.00;76.20;;;;;;5051986;28;19932;-76
2021/07/28 03:09:02;;;;;;;;;;;17.00;76.30;;;;;;5051714;28;19964;-76
2021/07/28 03:11:28;;;;;;;;;;;17.00;76.40;;;;;;5033746;28;20380;-77
2021/07/28 03:13:54;;;;;;;;;;;17.00;76.40;;;;;;5051878;28;20019;-77
2021/07/28 03:16:20;;;;;;;;;;;17.00;76.40;;;;;;5051891;28;20008;-77
2021/07/28 03:18:46;;;;;;;;;;;17.00;76.40;;;;;;5052432;28;19929;-77
2021/07/28 03:21:12;;;;;;;;;;;17.00;76.50;;;;;;5051947;28;19929;-77
2021/07/28 03:23:39;;;;;;;;;;;16.90;76.50;;;;;;5052059;28;20376;-77
2021/07/28 03:26:05;;;;;;;;;;;17.00;76.70;;;;;;5051576;28;19980;-77
2021/07/28 03:28:31;;;;;;;;;;;16.90;76.70;;;;;;5051754;28;19987;-77
2021/07/28 03:30:57;;;;;;;;;;;16.90;76.80;;;;;;5051852;28;20007;-76
2021/07/28 03:33:24;;;;;;;;;;;16.90;77.00;;;;;;5051521;28;19925;-77
2021/07/28 03:35:50;;;;;;;;;;;16.80;77.30;;;;;;5051907;28;19932;-78
2021/07/28 03:38:17;;;;;;;;;;;16.80;77.40;;;;;;5052050;28;19972;-77
2021/07/28 03:40:43;;;;;;;;;;;16.80;77.60;;;;;;5051401;28;20015;-76
2021/07/28 03:43:09;;;;;;;;;;;16.80;77.70;;;;;;5050946;28;20015;-76
2021/07/28 03:45:35;;;;;;;;;;;16.80;77.70;;;;;;5037827;28;20417;-76
2021/07/28 03:48:02;;;;;;;;;;;16.80;77.70;;;;;;5037624;28;20075;-76
2021/07/28 03:50:28;;;;;;;;;;;16.70;77.60;;;;;;5033128;28;19925;-75
2021/07/28 03:52:59;;;;;;;;;;;16.70;77.90;;;;;;5054741;28;20004;-76
2021/07/28 03:55:25;;;;;;;;;;;16.70;78.00;;;;;;5055242;28;19928;-76
2021/07/28 03:57:52;;;;;;;;;;;16.70;78.00;;;;;;5055433;28;19968;-76
2021/07/28 04:00:18;;;;;;;;;;;16.70;78.00;;;;;;5055497;28;19979;-77
2021/07/28 04:02:44;;;;;;;;;;;16.60;78.10;;;;;;5055199;28;19928;-77
2021/07/28 04:05:11;;;;;;;;;;;16.60;78.20;;;;;;5055257;28;19937;-76
2021/07/28 04:07:37;;;;;;;;;;;16.60;78.20;;;;;;5055227;28;20407;-77
2021/07/28 04:10:03;;;;;;;;;;;16.60;78.30;;;;;;5054654;28;20062;-76
2021/07/28 04:12:30;;;;;;;;;;;16.60;78.30;;;;;;5055054;28;20414;-77
2021/07/28 04:14:56;;;;;;;;;;;16.50;78.50;;;;;;5055497;28;19981;-76
2021/07/28 04:17:22;;;;;;;;;;;16.40;78.90;;;;;;5053571;28;19979;-77
2021/07/28 04:19:49;;;;;;;;;;;16.30;79.30;;;;;;5055215;28;19924;-77
2021/07/28 04:22:18;;;;;;;;;;;16.20;79.60;;;;;;5054283;28;20015;-76
2021/07/28 04:24:45;;;;;;;;;;;16.20;79.80;;;;;;5055024;28;20010;-77
2021/07/28 04:27:11;;;;;;;;;;;16.30;79.80;;;;;;5054813;28;20019;-77
2021/07/28 04:29:37;;;;;;;;;;;16.30;79.70;;;;;;5055108;28;19928;-76
2021/07/28 04:32:04;;;;;;;;;;;16.30;79.70;;;;;;5054433;28;19929;-77
2021/07/28 04:34:30;;;;;;;;;;;16.30;79.70;;;;;;5054602;28;20398;-76
2021/07/28 04:36:56;;;;;;;;;;;16.30;79.70;;;;;;5054415;28;20552;-77
2021/07/28 04:39:22;;;;;;;;;;;16.30;79.70;;;;;;5054663;28;19944;-77
2021/07/28 04:41:48;;;;;;;;;;;16.40;79.70;;;;;;5054780;28;19925;-77
2021/07/28 04:44:15;;;;;;;;;;;16.40;79.50;;;;;;5054535;28;19937;-76
2021/07/28 04:46:41;;;;;;;;;;;16.50;79.40;;;;;;5054053;28;19980;-76
2021/07/28 04:49:07;;;;;;;;;;;16.50;79.20;;;;;;5054095;28;20439;-76
2021/07/28 04:51:33;;;;;;;;;;;16.60;79.10;;;;;;5054089;28;19929;-77
2021/07/28 04:53:59;;;;;;;;;;;16.60;79.10;;;;;;5054293;28;20034;-76
2021/07/28 04:56:26;;;;;;;;;;;16.60;79.00;;;;;;5054094;28;20296;-76
2021/07/28 04:58:52;;;;;;;;;;;16.60;78.90;;;;;;5054248;28;20499;-74
2021/07/28 05:01:18;;;;;;;;;;;16.70;78.90;;;;;;5053650;28;20015;-75
2021/07/28 05:03:44;;;;;;;;;;;16.70;78.70;;;;;;5053307;28;20007;-78
2021/07/28 05:06:10;;;;;;;;;;;16.70;78.80;;;;;;5053605;28;20018;-77
2021/07/28 05:08:36;;;;;;;;;;;16.70;79.00;;;;;;5053088;28;19933;-80
2021/07/28 05:11:02;;;;;;;;;;;16.70;79.20;;;;;;5053546;28;19970;-81
2021/07/28 05:13:28;;;;;;;;;;;16.70;79.30;;;;;;5053358;28;20012;-80
2021/07/28 05:15:55;;;;;;;;;;;16.70;79.40;;;;;;5035731;28;19925;-80
2021/07/28 05:18:21;;;;;;;;;;;16.70;79.60;;;;;;5053174;28;20015;-81
2021/07/28 05:20:48;;;;;;;;;;;16.60;79.60;;;;;;5053180;28;20011;-80
2021/07/28 05:23:14;;;;;;;;;;;16.70;79.60;;;;;;5053412;28;20012;-80
2021/07/28 05:25:40;;;;;;;;;;;16.70;79.60;;;;;;5053279;28;19995;-78
2021/07/28 05:28:06;;;;;;;;;;;16.80;79.30;;;;;;5053374;28;19932;-80
2021/07/28 05:30:32;;;;;;;;;;;16.80;79.20;;;;;;5050003;28;20411;-80
2021/07/28 05:32:59;;;;;;;;;;;16.90;79.00;;;;;;5052725;28;20318;-80
2021/07/28 05:35:25;;;;;;;;;;;16.80;78.90;;;;;;5052607;28;19935;-79
2021/07/28 05:37:58;;;;;;;;;;;16.90;79.00;;;;;;5053260;28;19928;-80
2021/07/28 05:40:24;;;;;;;;;;;16.90;79.00;;;;;;5053224;28;20396;-78
2021/07/28 05:42:50;;;;;;;;;;;16.90;78.90;;;;;;5048088;28;19932;-78
2021/07/28 05:45:17;;;;;;;;;;;16.90;78.90;;;;;;5035322;28;20020;-78
2021/07/28 05:47:45;;;;;;;;;;;17.00;78.70;;;;;;5053020;28;20003;-78
2021/07/28 05:50:12;;;;;;;;;;;17.00;78.70;;;;;;5053204;28;19976;-78
2021/07/28 05:52:38;;;;;;;;;;;17.00;78.60;;;;;;5067252;28;19984;-79
2021/07/28 05:55:04;;;;;;;;;;;17.00;78.70;;;;;;5053278;28;20051;-79
2021/07/28 05:57:31;;;;;;;;;;;17.00;78.70;;;;;;5053186;28;20296;-80
2021/07/28 05:59:57;;;;;;;;;;;17.00;78.70;;;;;;5053597;28;19939;-79
2021/07/28 06:02:23;;;;;;;;;;;17.10;78.70;;;;;;5053357;28;20781;-79
2021/07/28 06:04:49;;;;;;;;;;;17.10;79.50;;;;;;5053567;28;20334;-80
2021/07/28 06:07:15;;;;;;;;;;;17.10;78.50;;;;;;5053684;28;20332;-81
2021/07/28 06:09:41;;;;;;;;;;;17.20;78.50;;;;;;5035339;28;19932;-79
2021/07/28 06:12:08;;;;;;;;;;;17.20;78.50;;;;;;5053647;28;19925;-81
2021/07/28 06:14:34;;;;;;;;;;;17.30;78.40;;;;;;5052494;28;20004;-76
2021/07/28 06:17:00;;;;;;;;;;;17.30;78.40;;;;;;5053742;28;19960;-83
2021/07/28 06:19:27;;;;;;;;;;;17.30;78.20;;;;;;5052764;28;19929;-76
2021/07/28 06:21:53;;;;;;;;;;;17.30;78.10;;;;;;5052825;28;20014;-76
2021/07/28 06:24:19;;;;;;;;;;;17.40;78.00;;;;;;5052922;28;19924;-76
2021/07/28 06:26:45;;;;;;;;;;;17.40;78.00;;;;;;5052712;28;19983;-76
2021/07/28 06:29:11;;;;;;;;;;;17.50;78.00;;;;;;5066814;28;20039;-76
2021/07/28 06:31:37;;;;;;;;;;;17.50;78.00;;;;;;5052580;28;19924;-76
2021/07/28 06:34:04;;;;;;;;;;;17.50;78.00;;;;;;5052418;28;19951;-76
2021/07/28 06:36:30;;;;;;;;;;;17.60;78.00;;;;;;5052050;28;19924;-75
2021/07/28 06:38:56;;;;;;;;;;;17.60;77.80;;;;;;5052017;28;19924;-75
2021/07/28 06:41:22;;;;;;;;;;;17.60;77.90;;;;;;5051611;28;20538;-75
2021/07/28 06:43:48;;;;;;;;;;;17.70;77.80;;;;;;5051382;28;19924;-76
2021/07/28 06:46:14;;;;;;;;;;;17.80;77.80;;;;;;5031823;28;19955;-77
2021/07/28 06:48:41;;;;;;;;;;;17.90;77.80;;;;;;5050198;28;19928;-76
2021/07/28 06:51:07;;;;;;;;;;;18.00;77.70;;;;;;5039682;28;19933;-79
2021/07/28 06:53:33;;;;;;;;;;;18.10;77.50;;;;;;5045918;28;19929;-77
2021/07/28 06:55:59;;;;;;;;;;;18.20;77.30;;;;;;5040340;28;20305;-76
2021/07/28 06:58:26;;;;;;;;;;;18.20;77.00;;;;;;5048728;28;19928;-75
2021/07/28 07:00:53;;;;;;;;;;;18.30;77.00;;;;;;5042626;28;20659;-79
2021/07/28 07:03:19;;;;;;;;;;;18.40;77.00;;;;;;5047261;28;20019;-76
2021/07/28 07:05:48;;;;;;;;;;;18.50;76.80;;;;;;5043156;28;19925;-76
2021/07/28 07:20:09;;;;;;;;;;;18.80;76.50;;;;;;5023327;28;19936;-76
2021/07/28 07:22:39;;;;;;;;;;;18.80;75.90;;;;;;5011854;28;19983;-78
2021/07/28 07:25:06;;;;;;;;;;;18.90;76.00;;;;;;5014076;28;20565;-77
2021/07/28 07:27:33;;;;;;;;;;;18.90;75.90;;;;;;5033732;28;19929;-77
2021/07/28 07:30:00;;;;;;;;;;;18.90;75.70;;;;;;5043722;28;19928;-76
2021/07/28 07:32:29;;;;;;;;;;;19.00;75.20;;;;;;5025767;28;19937;-76
2021/07/28 07:34:56;;;;;;;;;;;19.00;75.10;;;;;;5030557;28;19948;-76
2021/07/28 07:37:23;;;;;;;;;;;19.00;74.50;;;;;;5034150;28;19933;-76
2021/07/28 07:39:50;;;;;;;;;;;19.00;74.20;;;;;;5034186;28;20409;-77
2021/07/28 07:42:17;;;;;;;;;;;19.00;74.10;;;;;;5031973;28;19940;-77
2021/07/28 07:44:45;;;;;;;;;;;19.00;73.50;;;;;;5032126;28;20415;-77
2021/07/28 07:47:12;;;;;;;;;;;19.00;73.20;;;;;;5031455;28;19982;-76
2021/07/28 07:49:38;;;;;;;;;;;19.00;73.40;;;;;;5031262;28;19936;-76
2021/07/28 07:52:05;;;;;;;;;;;19.00;73.70;;;;;;5031338;28;19929;-77
2021/07/28 07:54:33;;;;;;;;;;;19.00;74.00;;;;;;5033212;28;20308;-76
2021/07/28 07:57:00;;;;;;;;;;;19.10;74.10;;;;;;5031477;28;19936;-77
2021/07/28 07:59:26;;;;;;;;;;;19.10;74.20;;;;;;5031311;28;19929;-77
2021/07/28 08:01:52;;;;;;;;;;;19.10;74.20;;;;;;5031753;28;20400;-77
2021/07/28 08:04:23;;;;;;;;;;;19.10;73.90;;;;;;5030897;28;20012;-77
2021/07/28 08:06:51;;;;;;;;;;;19.10;73.80;;;;;;5031858;28;20398;-77
2021/07/28 08:09:18;;;;;;;;;;;19.20;73.90;;;;;;5012941;28;19999;-77
2021/07/28 08:11:46;;;;;;;;;;;19.20;73.00;;;;;;5031203;28;19929;-77
2021/07/28 08:14:13;;;;;;;;;;;19.30;73.10;;;;;;5031153;28;20293;-77
2021/07/28 08:16:39;;;;;;;;;;;19.60;73.20;;;;;;5031322;28;19975;-77
2021/07/28 08:19:06;;;;;;;;;;;19.90;72.40;;;;;;5030754;28;19936;-77
2021/07/28 08:21:33;;;;;;;;;;;20.20;71.00;;;;;;5040072;28;19935;-77
2021/07/28 08:24:00;;;;;;;;;;;20.40;70.00;;;;;;5048701;28;19929;-76
2021/07/28 08:26:26;;;;;;;;;;;20.60;69.00;;;;;;5050873;28;19929;-77
2021/07/28 08:28:52;;;;;;;;;;;20.80;67.80;;;;;;5050697;28;19936;-77
2021/07/28 08:31:21;;;;;;;;;;;21.00;67.10;;;;;;5051056;28;20350;-80
2021/07/28 08:33:50;;;;;;;;;;;21.30;66.00;;;;;;5050858;28;20285;-77
2021/07/28 08:36:16;;;;;;;;;;;21.50;64.90;;;;;;5035505;28;19924;-80
2021/07/28 08:38:43;;;;;;;;;;;21.70;63.60;;;;;;5052880;28;19971;-81
2021/07/28 08:41:10;;;;;;;;;;;21.70;63.00;;;;;;5053929;28;19929;-77
2021/07/28 08:43:37;;;;;;;;;;;21.80;63.40;;;;;;5053382;28;19928;-77
2021/07/28 08:46:05;;;;;;;;;;;22.20;63.60;;;;;;5054172;28;20031;-77
2021/07/28 08:48:31;;;;;;;;;;;22.60;62.20;;;;;;5031215;28;19933;-78
2021/07/28 08:51:02;;;;;;;;;;;23.10;60.20;;;;;;5046508;28;19940;-79
2021/07/28 08:53:30;;;;;;;;;;;23.60;59.30;;;;;;5049688;28;20437;-78
2021/07/28 08:55:59;;;;;;;;;;;23.80;56.80;;;;;;5049408;28;20022;-79
2021/07/28 08:58:26;;;;;;;;;;;24.00;56.60;;;;;;5049102;28;19928;-79
2021/07/28 09:00:54;;;;;;;;;;;24.20;54.90;;;;;;5049658;28;19934;-77
2021/07/28 09:03:20;;;;;;;;;;;24.00;54.00;;;;;;5042662;28;19929;-78
2021/07/28 09:05:50;;;;;;;;;;;23.80;54.50;;;;;;5050503;28;19936;-78
2021/07/28 09:08:32;;;;;;;;;;;23.60;55.60;;;;;;5050744;28;19933;-79
2021/07/28 09:11:00;;;;;;;;;;;23.70;56.10;;;;;;5044505;28;19929;-78
2021/07/28 09:13:27;;;;;;;;;;;23.70;55.20;;;;;;5050506;28;20388;-78
2021/07/28 09:15:56;;;;;;;;;;;23.40;54.40;;;;;;5051082;28;19936;-77
2021/07/28 09:18:26;;;;;;;;;;;23.00;55.10;;;;;;5051266;28;20411;-77
2021/07/28 09:20:53;;;;;;;;;;;22.80;56.20;;;;;;5044378;28;19989;-77
2021/07/28 09:23:21;;;;;;;;;;;22.80;56.50;;;;;;5041459;28;19933;-77
2021/07/28 09:25:54;;;;;;;;;;;23.00;56.80;;;;;;5037706;28;19929;-77
2021/07/28 09:28:21;;;;;;;;;;;23.10;56.20;;;;;;5016942;28;20015;-78
2021/07/28 09:30:48;;;;;;;;;;;23.60;56.70;;;;;;5039896;28;20125;-77
2021/07/28 09:33:16;;;;;;;;;;;24.30;54.90;;;;;;5043361;28;19929;-78
2021/07/28 09:35:52;;;;;;;;;;;24.60;52.40;;;;;;5037861;28;19929;-78
2021/07/28 09:38:32;;;;;;;;;;;24.50;51.10;;;;;;5043772;28;20356;-78
2021/07/28 09:41:21;;;;;;;;;;;24.20;50.30;;;;;;5033558;28;19948;-78
2021/07/28 09:43:51;;;;;;;;;;;24.20;51.90;;;;;;5029927;28;19968;-79
2021/07/28 09:46:34;;;;;;;;;;;24.70;50.60;;;;;;5030221;28;20032;-79
2021/07/28 09:49:05;;;;;;;;;;;25.10;49.20;;;;;;5011137;28;19933;-79
2021/07/28 09:51:33;;;;;;;;;;;25.80;47.90;;;;;;5011510;28;19999;-79
2021/07/28 09:54:05;;;;;;;;;;;26.40;46.20;;;;;;5029323;28;19929;-79
2021/07/28 09:56:40;;;;;;;;;;;26.90;44.60;;;;;;5015553;28;19936;-78
2021/07/28 09:59:11;;;;;;;;;;;27.50;44.20;;;;;;5028467;28;20040;-79
2021/07/28 10:01:38;;;;;;;;;;;28.10;42.30;;;;;;5029806;28;19939;-78
2021/07/28 10:04:06;;;;;;;;;;;28.50;41.80;;;;;;5029011;28;20312;-78
2021/07/28 10:06:39;;;;;;;;;;;28.90;40.50;;;;;;5029237;28;20467;-78
2021/07/28 10:09:06;;;;;;;;;;;29.00;40.50;;;;;;5029148;28;19929;-77
2021/07/28 10:11:33;;;;;;;;;;;28.70;39.60;;;;;;5025402;28;19936;-78
2021/07/28 10:14:00;;;;;;;;;;;28.30;39.30;;;;;;5029450;28;19929;-78
2021/07/28 10:16:27;;;;;;;;;;;27.90;39.80;;;;;;5027597;28;20008;-78
2021/07/28 10:18:55;;;;;;;;;;;27.90;41.80;;;;;;5025242;28;20365;-79
2021/07/28 10:21:21;;;;;;;;;;;28.40;40.60;;;;;;5028519;28;19972;-78
2021/07/28 10:23:49;;;;;;;;;;;28.90;39.40;;;;;;5002963;28;19942;-78
2021/07/28 10:26:17;;;;;;;;;;;29.00;37.40;;;;;;5029025;28;19929;-78
2021/07/28 10:28:47;;;;;;;;;;;28.30;36.70;;;;;;5025529;28;20440;-77
2021/07/28 10:31:14;;;;;;;;;;;27.70;38.10;;;;;;5028383;28;20038;-78
2021/07/28 10:33:50;;;;;;;;;;;27.10;39.60;;;;;;5028566;28;19936;-80
2021/07/28 10:36:18;;;;;;;;;;;26.90;40.00;;;;;;5029077;28;19936;-79
2021/07/28 10:38:57;;;;;;;;;;;26.70;39.50;;;;;;5009756;28;19936;-79
2021/07/28 10:41:39;;;;;;;;;;;26.40;38.70;;;;;;5010483;28;19929;-79
2021/07/28 10:44:12;;;;;;;;;;;26.00;38.90;;;;;;5028363;28;19929;-79
2021/07/28 10:46:52;;;;;;;;;;;25.60;40.90;;;;;;5028720;28;20300;-79
2021/07/28 10:49:37;;;;;;;;;;;25.30;41.90;;;;;;5027607;28;19933;-79
2021/07/28 10:52:04;;;;;;;;;;;25.20;42.60;;;;;;5028345;28;19936;-79
2021/07/28 10:54:49;;;;;;;;;;;25.00;42.40;;;;;;5028107;28;20055;-79
2021/07/28 10:57:35;;;;;;;;;;;24.80;43.00;;;;;;5028421;28;19929;-78
2021/07/28 11:00:03;;;;;;;;;;;24.50;43.40;;;;;;5027782;28;19975;-78
2021/07/28 11:02:56;;;;;;;;;;;24.20;44.40;;;;;;5027802;28;20324;-79
2021/07/28 11:05:24;;;;;;;;;;;24.00;43.90;;;;;;4985949;28;20023;-79
2021/07/28 11:08:03;;;;;;;;;;;23.90;45.20;;;;;;4985770;28;19930;-79
2021/07/28 11:10:32;;;;;;;;;;;23.90;45.20;;;;;;4989613;28;19930;-79
2021/07/28 11:13:07;;;;;;;;;;;24.00;45.40;;;;;;4989189;28;20440;-79
2021/07/28 11:15:34;;;;;;;;;;;24.00;45.50;;;;;;4986539;28;19930;-79
2021/07/28 11:18:00;;;;;;;;;;;24.10;44.80;;;;;;4985800;28;19930;-79
2021/07/28 11:20:28;;;;;;;;;;;24.10;45.00;;;;;;4976283;28;19984;-79
2021/07/28 11:23:13;;;;;;;;;;;24.10;45.00;;;;;;5003613;28;19933;-78
2021/07/28 11:25:40;;;;;;;;;;;24.20;44.80;;;;;;4987324;28;20020;-78
2021/07/28 11:28:07;;;;;;;;;;;24.20;44.60;;;;;;4990039;28;19930;-78
2021/07/28 11:30:33;;;;;;;;;;;24.20;44.40;;;;;;5005825;28;19936;-78
2021/07/28 11:33:13;;;;;;;;;;;24.10;44.10;;;;;;4996549;28;19930;-78
2021/07/28 11:35:41;;;;;;;;;;;24.00;44.30;;;;;;4988459;28;20012;-78
2021/07/28 11:38:16;;;;;;;;;;;24.00;45.00;;;;;;4988461;28;19929;-78
2021/07/28 11:40:44;;;;;;;;;;;23.90;45.00;;;;;;4991864;28;19952;-78
2021/07/28 11:43:29;;;;;;;;;;;23.80;45.20;;;;;;5040080;28;20015;-78
2021/07/28 11:45:59;;;;;;;;;;;23.70;44.90;;;;;;5033925;28;19929;-78
2021/07/28 11:48:29;;;;;;;;;;;23.80;45.50;;;;;;5044955;28;19929;-79
2021/07/28 11:50:56;;;;;;;;;;;23.70;45.20;;;;;;5034389;28;20304;-79
2021/07/28 11:53:23;;;;;;;;;;;23.60;45.30;;;;;;5043516;28;20335;-78
2021/07/28 11:55:51;;;;;;;;;;;23.40;45.20;;;;;;5047424;28;19979;-78
2021/07/28 11:58:18;;;;;;;;;;;23.40;45.60;;;;;;5037125;28;20051;-78
2021/07/28 12:00:47;;;;;;;;;;;23.40;45.40;;;;;;5040683;28;19976;-78
2021/07/28 12:03:24;;;;;;;;;;;23.30;46.20;;;;;;5042176;28;20535;-78
2021/07/28 12:06:00;;;;;;;;;;;23.10;46.30;;;;;;5047770;28;19935;-78
2021/07/28 12:08:29;;;;;;;;;;;23.10;47.00;;;;;;5033536;28;19928;-78
2021/07/28 12:11:09;;;;;;;;;;;23.10;48.00;;;;;;5047934;28;19932;-78
2021/07/28 12:13:42;;;;;;;;;;;23.10;47.70;;;;;;5018611;28;20455;-78
2021/07/28 12:16:08;;;;;;;;;;;23.00;48.50;;;;;;5051753;28;20449;-78
2021/07/28 12:18:38;;;;;;;;;;;23.00;48.90;;;;;;5042749;28;19929;-78
2021/07/28 12:21:05;;;;;;;;;;;23.00;49.00;;;;;;5038636;28;20320;-78
2021/07/28 12:23:31;;;;;;;;;;;23.00;47.50;;;;;;5023449;28;20312;-78
2021/07/28 12:26:01;;;;;;;;;;;23.00;47.80;;;;;;5030729;28;19929;-78
2021/07/28 12:28:46;;;;;;;;;;;23.00;48.10;;;;;;5030894;28;19978;-78
2021/07/28 12:31:25;;;;;;;;;;;23.00;47.50;;;;;;5031499;28;20408;-78
2021/07/28 12:33:52;;;;;;;;;;;23.00;46.60;;;;;;5030792;28;19929;-78
2021/07/28 12:36:26;;;;;;;;;;;22.90;47.20;;;;;;5031281;28;19992;-79
2021/07/28 12:38:53;;;;;;;;;;;22.90;47.50;;;;;;5030898;28;20060;-78
2021/07/28 12:41:19;;;;;;;;;;;22.90;46.50;;;;;;5031214;28;20027;-78
2021/07/28 12:43:48;;;;;;;;;;;22.80;46.10;;;;;;5030806;28;19975;-79
2021/07/28 12:46:14;;;;;;;;;;;22.80;46.70;;;;;;5012634;28;19984;-78
2021/07/28 12:48:41;;;;;;;;;;;22.80;45.90;;;;;;5030538;28;20307;-78
2021/07/28 12:51:08;;;;;;;;;;;22.70;45.40;;;;;;5030523;28;19929;-78
2021/07/28 12:53:35;;;;;;;;;;;22.70;46.00;;;;;;5030817;28;20047;-78
2021/07/28 12:56:01;;;;;;;;;;;22.70;45.70;;;;;;5030589;28;20416;-78
2021/07/28 12:58:28;;;;;;;;;;;22.80;45.10;;;;;;5030458;28;19932;-78
2021/07/28 13:00:56;;;;;;;;;;;22.80;45.40;;;;;;5031117;28;19936;-78
2021/07/28 13:03:25;;;;;;;;;;;22.80;45.00;;;;;;5030483;28;20384;-78
2021/07/28 13:05:55;;;;;;;;;;;22.80;44.80;;;;;;5030387;28;19925;-78
2021/07/28 13:08:22;;;;;;;;;;;22.90;45.60;;;;;;5030295;28;20012;-78
2021/07/28 13:10:51;;;;;;;;;;;22.80;46.00;;;;;;5030715;28;19929;-78
2021/07/28 13:13:18;;;;;;;;;;;22.80;46.00;;;;;;5029988;28;19968;-78
2021/07/28 13:15:45;;;;;;;;;;;22.80;46.10;;;;;;5032215;28;19936;-78
2021/07/28 13:18:12;;;;;;;;;;;22.90;46.40;;;;;;5037452;28;19973;-78
2021/07/28 13:20:39;;;;;;;;;;;22.90;46.30;;;;;;5042009;28;20296;-78
2021/07/28 13:23:06;;;;;;;;;;;23.00;46.20;;;;;;5035266;28;19991;-78
2021/07/28 13:25:32;;;;;;;;;;;23.00;46.10;;;;;;5053784;28;19925;-78
2021/07/28 13:28:00;;;;;;;;;;;23.00;46.40;;;;;;5053547;28;19929;-78
2021/07/28 13:30:27;;;;;;;;;;;23.00;45.30;;;;;;5035327;28;19940;-78
2021/07/28 13:32:54;;;;;;;;;;;22.90;45.20;;;;;;5053525;28;19925;-78
2021/07/28 13:35:20;;;;;;;;;;;22.90;44.60;;;;;;5052934;28;19937;-78
2021/07/28 13:37:46;;;;;;;;;;;22.90;44.20;;;;;;5053302;28;19924;-78
2021/07/28 13:40:13;;;;;;;;;;;22.90;44.10;;;;;;5049094;28;20007;-78
2021/07/28 13:42:40;;;;;;;;;;;22.90;44.80;;;;;;5053147;28;19928;-78
2021/07/28 13:45:09;;;;;;;;;;;22.80;45.00;;;;;;5053178;28;19931;-78
2021/07/28 13:47:46;;;;;;;;;;;22.80;45.00;;;;;;5053332;28;19924;-79
2021/07/28 13:50:14;;;;;;;;;;;22.90;44.70;;;;;;5053129;28;19978;-77
2021/07/28 13:52:41;;;;;;;;;;;22.90;45.00;;;;;;5052858;28;19925;-78
2021/07/28 13:55:08;;;;;;;;;;;22.80;45.30;;;;;;5053195;28;19924;-78
2021/07/28 13:57:34;;;;;;;;;;;22.70;44.80;;;;;;5052828;28;19932;-78
2021/07/28 14:00:01;;;;;;;;;;;22.70;45.60;;;;;;5052999;28;19925;-78
2021/07/28 14:02:27;;;;;;;;;;;22.70;46.40;;;;;;5053021;28;19932;-78
2021/07/28 14:04:55;;;;;;;;;;;22.80;46.40;;;;;;5052762;28;19925;-78
2021/07/28 14:07:24;;;;;;;;;;;22.80;46.20;;;;;;5052691;28;20424;-78
2021/07/28 14:09:52;;;;;;;;;;;22.90;46.50;;;;;;5052782;28;20469;-78
2021/07/28 14:12:18;;;;;;;;;;;22.90;46.60;;;;;;5034876;28;19931;-78
2021/07/28 14:14:44;;;;;;;;;;;22.90;46.10;;;;;;5052358;28;20019;-78
2021/07/28 14:17:11;;;;;;;;;;;22.90;46.60;;;;;;5052428;28;19932;-78
2021/07/28 14:19:40;;;;;;;;;;;22.90;45.50;;;;;;5052551;28;19929;-78
2021/07/28 14:22:07;;;;;;;;;;;22.90;45.20;;;;;;5052819;28;19936;-78
2021/07/28 14:24:34;;;;;;;;;;;22.90;45.50;;;;;;5052739;28;20387;-77
2021/07/28 14:27:02;;;;;;;;;;;22.80;45.50;;;;;;5034353;28;20325;-77
2021/07/28 14:29:29;;;;;;;;;;;22.80;45.90;;;;;;5051494;28;19968;-78
2021/07/28 14:31:55;;;;;;;;;;;22.80;46.40;;;;;;5051952;28;19967;-78
2021/07/28 14:34:21;;;;;;;;;;;22.70;46.30;;;;;;5052500;28;20353;-78
2021/07/28 14:36:48;;;;;;;;;;;22.70;46.70;;;;;;5051946;28;20392;-77